createdAt,value
2022-11-29T00:00:23.539Z,8.60
2022-11-29T00:15:40.863Z,10.30
2022-11-29T00:30:43.425Z,10.80
2022-11-29T00:46:01.389Z,11.10
2022-11-29T01:01:04.704Z,10.60
2022-11-29T01:16:08.403Z,9.80
2022-11-29T01:31:16.461Z,9.30
2022-11-29T01:46:18.914Z,12.00
2022-11-29T02:01:21.549Z,11.20
2022-11-29T02:16:53.533Z,9.70
2022-11-29T02:32:36.994Z,11.80
2022-11-29T02:48:28.508Z,10.10
2022-11-29T03:03:50.270Z,9.90
2022-11-29T03:19:29.541Z,11.20
2022-11-29T03:50:06.908Z,11.20
2022-11-29T04:06:13.877Z,11.50
2022-11-29T04:21:36.662Z,10.80
2022-11-29T04:37:04.970Z,10.60
2022-11-29T04:52:30.635Z,12.00
2022-11-29T05:07:52.367Z,12.80
2022-11-29T05:23:48.030Z,13.90
2022-11-29T05:39:35.690Z,13.10
2022-11-29T05:54:47.649Z,13.40
2022-11-29T06:10:01.955Z,15.20
2022-11-29T06:25:49.521Z,10.70
2022-11-29T06:41:12.979Z,13.70
2022-11-29T06:56:33.967Z,15.60
2022-11-29T07:11:37.173Z,13.90
2022-11-29T07:27:11.286Z,15.60
2022-11-29T07:43:09.026Z,14.30
2022-11-29T07:58:26.215Z,18.80
2022-11-29T08:13:29.207Z,14.70
2022-11-29T08:28:31.922Z,14.70
2022-11-29T08:43:35.877Z,14.60
2022-11-29T08:58:39.499Z,14.30
2022-11-29T09:13:48.865Z,16.50
2022-11-29T09:28:51.937Z,16.10
2022-11-29T09:44:19.064Z,11.80
2022-11-29T09:59:37.541Z,13.80
2022-11-29T10:30:35.985Z,14.10
2022-11-29T10:45:43.699Z,18.20
2022-11-29T11:00:57.013Z,12.90
2022-11-29T11:16:16.869Z,13.50
2022-11-29T11:31:39.120Z,16.60
2022-11-29T11:46:49.740Z,12.00
2022-11-29T12:17:08.802Z,14.50
2022-11-29T12:32:21.645Z,17.60
2022-11-29T12:47:51.482Z,17.00
2022-11-29T13:03:05.404Z,17.30
2022-11-29T13:18:25.876Z,18.30
2022-11-29T13:34:07.025Z,15.70
2022-11-29T13:49:50.894Z,15.80
2022-11-29T14:04:53.916Z,16.60
2022-11-29T14:20:22.494Z,14.40
2022-11-29T14:35:43.572Z,17.90
2022-11-29T14:50:47.112Z,17.80
2022-11-29T15:06:24.209Z,16.70
2022-11-29T15:21:45.730Z,15.40
2022-11-29T15:36:48.636Z,14.70
2022-11-29T15:52:07.872Z,17.40
2022-11-29T16:07:12.279Z,10.70
2022-11-29T16:22:26.481Z,15.60
2022-11-29T16:37:46.425Z,16.80
2022-11-29T16:52:56.369Z,16.00
2022-11-29T17:08:00.217Z,15.60
2022-11-29T17:23:03.612Z,17.50
2022-11-29T17:38:06.347Z,16.30
2022-11-29T17:53:09.635Z,17.00
2022-11-29T18:08:12.323Z,17.50
2022-11-29T18:23:15.157Z,15.30
2022-11-29T18:38:17.951Z,20.90
2022-11-29T18:53:21.096Z,15.90
2022-11-29T19:08:40.305Z,17.90
2022-11-29T19:23:49.702Z,21.90
2022-11-29T19:38:54.640Z,20.30
2022-11-29T19:54:01.652Z,19.70
2022-11-29T20:09:05.912Z,18.00
2022-11-29T20:24:09.696Z,19.80
2022-11-29T20:39:35.336Z,19.60
2022-11-29T20:54:38.545Z,16.20
2022-11-29T21:10:00.910Z,20.90
2022-11-29T21:25:27.113Z,17.40
2022-11-29T21:40:30.068Z,13.90
2022-11-29T21:55:33.166Z,20.40
2022-11-29T22:10:36.399Z,20.40
2022-11-29T22:25:39.060Z,19.00
2022-11-29T22:40:42.052Z,16.00
2022-11-29T22:55:45.100Z,19.50
2022-11-29T23:11:03.803Z,20.30
2022-11-29T23:26:08.651Z,16.50
2022-11-29T23:41:12.635Z,18.30
